Latest Weather Observations for Inner Beacon

IDQ60801

Issued at 9:43 am EST Tuesday 28 June 2022 (issued every 10 minutes, with the page automatically refreshed every 10 minutes)

About weather observations | Map of weather stations | Latest weather observations for QLD | Other Formats
Station Details ID: 040926 Name: INNER RECIPROCAL MARKER Lat: -27.26 Lon: 153.24 Height: 10.0 m
Data from the previous 72 hours. | See also: Recent months at Inner Beacon
Date/Time
EST
Temp
°C
App
Temp
°C
Dew
Point
°C
Rel
Hum
%
Delta-T
°C
Wind Press
QNH
hPa
Press
MSL
hPa
Rain since
9am
mm
Dir  Spd
km/h
Gust
km/h
Spd
kts
Gust
kts
28/09:30am - - - - - SSW 19 22 10 12 - - -
28/09:00am - - - - - SSW 20 24 11 13 - - -
28/08:30am - - - - - SSW 24 28 13 15 - - -
28/08:00am - - - - - SSW 26 28 14 15 - - -
28/07:30am - - - - - SSW 20 24 11 13 - - -
28/07:00am - - - - - SSW 22 26 12 14 - - -
28/06:30am - - - - - SSW 20 24 11 13 - - -
28/06:00am - - - - - SSW 24 26 13 14 - - -
28/05:30am - - - - - SSW 22 24 12 13 - - -
28/05:00am - - - - - SSW 22 26 12 14 - - -
28/04:30am - - - - - SSW 24 28 13 15 - - -
28/04:00am - - - - - SSW 24 30 13 16 - - -
28/03:30am - - - - - S 26 30 14 16 - - -
28/03:00am - - - - - SSW 22 28 12 15 - - -
28/02:30am - - - - - SSW 24 28 13 15 - - -
28/02:00am - - - - - S 26 32 14 17 - - -
28/01:30am - - - - - S 28 35 15 19 - - -
28/01:00am - - - - - S 30 37 16 20 - - -
28/12:30am - - - - - S 32 39 17 21 - - -
28/12:00am - - - - - SSE 39 48 21 26 - - -
 
Date/Time
EST
Temp
°C
App
Temp
°C
Dew
Point
°C
Rel
Hum
%
Delta-T
°C
Wind Press
QNH
hPa
Press
MSL
hPa
Rain since
9am
mm
Dir  Spd
km/h
Gust
km/h
Spd
kts
Gust
kts
27/11:30pm - - - - - SSE 39 46 21 25 - - -
27/11:00pm - - - - - SSE 39 50 21 27 - - -
27/10:30pm - - - - - S 35 44 19 24 - - -
27/10:00pm - - - - - SSE 30 35 16 19 - - -
27/09:30pm - - - - - S 26 32 14 17 - - -
27/09:00pm - - - - - S 20 24 11 13 - - -
27/08:30pm - - - - - SSE 20 22 11 12 - - -
27/08:00pm - - - - - SSE 19 24 10 13 - - -
27/07:30pm - - - - - SSE 19 24 10 13 - - -
27/07:00pm - - - - - SE 13 17 7 9 - - -
27/06:30pm - - - - - SE 17 19 9 10 - - -
27/06:00pm - - - - - SSE 11 15 6 8 - - -
27/05:30pm - - - - - SW 7 9 4 5 - - -
27/05:00pm - - - - - SSW 9 9 5 5 - - -
27/04:30pm - - - - - SSW 11 13 6 7 - - -
27/04:00pm - - - - - SW 11 13 6 7 - - -
27/03:30pm - - - - - SSW 13 17 7 9 - - -
27/03:00pm - - - - - SW 13 17 7 9 - - -
27/02:30pm - - - - - SW 13 17 7 9 - - -
27/02:00pm - - - - - WSW 15 17 8 9 - - -
27/01:30pm - - - - - WSW 20 22 11 12 - - -
27/01:00pm - - - - - WSW 20 24 11 13 - - -
27/12:30pm - - - - - WSW 15 19 8 10 - - -
27/12:00pm - - - - - W 7 9 4 5 - - -
27/11:30am - - - - - WNW 7 7 4 4 - - -
27/11:00am - - - - - WNW 9 9 5 5 - - -
27/10:30am - - - - - WNW 9 11 5 6 - - -
27/10:00am - - - - - W 11 13 6 7 - - -
27/09:30am - - - - - W 13 15 7 8 - - -
27/09:00am - - - - - WSW 9 13 5 7 - - -
27/08:30am - - - - - SW 9 13 5 7 - - -
27/08:00am - - - - - SW 20 22 11 12 - - -
27/07:30am - - - - - SW 15 17 8 9 - - -
27/07:00am - - - - - SW 15 17 8 9 - - -
27/06:30am - - - - - SSW 19 22 10 12 - - -
27/06:00am - - - - - SSW 22 26 12 14 - - -
27/05:30am - - - - - SSW 22 28 12 15 - - -
27/05:00am - - - - - SSW 19 22 10 12 - - -
27/04:30am - - - - - SSW 19 20 10 11 - - -
27/04:00am - - - - - SSW 17 19 9 10 - - -
27/03:30am - - - - - SSW 19 22 10 12 - - -
27/03:00am - - - - - SSW 13 17 7 9 - - -
27/02:30am - - - - - SSW 20 22 11 12 - - -
27/02:00am - - - - - SSW 15 17 8 9 - - -
27/01:30am - - - - - SW 11 13 6 7 - - -
27/01:00am - - - - - SSW 13 13 7 7 - - -
27/12:30am - - - - - SW 17 20 9 11 - - -
27/12:00am - - - - - WSW 15 17 8 9 - - -
 
Date/Time
EST
Temp
°C
App
Temp
°C
Dew
Point
°C
Rel
Hum
%
Delta-T
°C
Wind Press
QNH
hPa
Press
MSL
hPa
Rain since
9am
mm
Dir  Spd
km/h
Gust
km/h
Spd
kts
Gust
kts
26/11:30pm - - - - - WSW 11 13 6 7 - - -
26/11:00pm - - - - - WSW 15 17 8 9 - - -
26/10:30pm - - - - - WSW 11 13 6 7 - - -
26/10:00pm - - - - - SSE 6 7 3 4 - - -
26/09:30pm - - - - - E 6 6 3 3 - - -
26/09:00pm - - - - - SE 4 4 2 2 - - -
26/08:30pm - - - - - SE 6 6 3 3 - - -
26/08:00pm - - - - - SE 7 7 4 4 - - -
26/07:30pm - - - - - SSE 7 7 4 4 - - -
26/07:00pm - - - - - E 6 7 3 4 - - -
26/06:30pm - - - - - E 4 6 2 3 - - -
26/06:00pm - - - - - ENE 2 4 1 2 - - -
26/05:30pm - - - - - ENE 7 9 4 5 - - -
26/05:00pm - - - - - CALM 0 0 0 0 - - -
26/04:30pm - - - - - ESE 4 4 2 2 - - -
26/04:00pm - - - - - SE 4 4 2 2 - - -
26/03:30pm - - - - - SSE 6 6 3 3 - - -
26/03:00pm - - - - - SE 6 7 3 4 - - -
26/02:30pm - - - - - SSE 4 6 2 3 - - -
26/02:00pm - - - - - S 6 6 3 3 - - -
26/01:30pm - - - - - S 6 7 3 4 - - -
26/01:00pm - - - - - S 7 7 4 4 - - -
26/12:30pm - - - - - S 7 9 4 5 - - -
26/12:00pm - - - - - SSW 9 9 5 5 - - -
26/11:30am - - - - - SSW 9 11 5 6 - - -
26/11:00am - - - - - SSW 9 11 5 6 - - -
26/10:30am - - - - - SSW 13 15 7 8 - - -
26/10:00am - - - - - SW 15 17 8 9 - - -
26/09:30am - - - - - SW 15 19 8 10 - - -
26/09:00am - - - - - SW 15 17 8 9 - - -
26/08:30am - - - - - SSW 17 20 9 11 - - -
26/08:00am - - - - - SSW 19 20 10 11 - - -
26/07:30am - - - - - SSW 19 22 10 12 - - -
26/07:00am - - - - - SSW 15 17 8 9 - - -
26/06:30am - - - - - SSW 15 17 8 9 - - -
26/06:00am - - - - - SSW 15 17 8 9 - - -
26/05:30am - - - - - SSW 15 17 8 9 - - -
26/05:00am - - - - - SSW 15 17 8 9 - - -
26/04:30am - - - - - SSW 13 15 7 8 - - -
26/04:00am - - - - - SSW 15 17 8 9 - - -
26/03:30am - - - - - SW 13 15 7 8 - - -
26/03:00am - - - - - SSW 13 15 7 8 - - -
26/02:30am - - - - - SSW 11 13 6 7 - - -
26/02:00am - - - - - SSW 15 17 8 9 - - -
26/01:30am - - - - - SW 13 15 7 8 - - -
26/01:00am - - - - - SW 11 13 6 7 - - -
26/12:30am - - - - - WSW 11 13 6 7 - - -
26/12:00am - - - - - WSW 11 13 6 7 - - -
 
Date/Time
EST
Temp
°C
App
Temp
°C
Dew
Point
°C
Rel
Hum
%
Delta-T
°C
Wind Press
QNH
hPa
Press
MSL
hPa
Rain since
9am
mm
Dir  Spd
km/h
Gust
km/h
Spd
kts
Gust
kts
25/11:30pm - - - - - WSW 9 11 5 6 - - -
25/11:00pm - - - - - WSW 9 11 5 6 - - -
25/10:30pm - - - - - WSW 9 9 5 5 - - -
25/10:00pm - - - - - W 9 9 5 5 - - -
25/09:30pm - - - - - W 9 9 5 5 - - -
25/09:00pm - - - - - CALM 0 0 0 0 - - -
25/08:30pm - - - - - ESE 2 2 1 1 - - -
25/08:00pm - - - - - E 4 6 2 3 - - -
25/07:30pm - - - - - E 6 7 3 4 - - -
25/07:00pm - - - - - E 6 7 3 4 - - -
25/06:30pm - - - - - E 4 6 2 3 - - -
25/06:00pm - - - - - E 6 7 3 4 - - -
25/05:30pm - - - - - ENE 7 7 4 4 - - -
25/05:00pm - - - - - ENE 9 11 5 6 - - -
25/04:30pm - - - - - E 6 7 3 4 - - -
25/04:00pm - - - - - E 6 7 3 4 - - -
25/03:30pm - - - - - NE 7 9 4 5 - - -
25/03:00pm - - - - - NE 7 9 4 5 - - -
25/02:30pm - - - - - E 2 7 1 4 - - -
25/02:00pm - - - - - CALM 0 0 0 0 - - -
25/01:30pm - - - - - WSW 2 2 1 1 - - -
25/01:00pm - - - - - W 6 6 3 3 - - -
25/12:30pm - - - - - W 4 6 2 3 - - -
25/12:00pm - - - - - WNW 7 9 4 5 - - -
25/11:30am - - - - - WNW 6 7 3 4 - - -
25/11:00am - - - - - W 6 7 3 4 - - -
25/10:30am - - - - - WSW 7 9 4 5 - - -
25/10:00am - - - - - SSW 7 9 4 5 - - -

Other formats

Comma delimited format used in spreadsheet applications
http://www.bom.gov.au/fwo/IDQ60801/IDQ60801.94590.axf

JavaScript Object Notation format (JSON) in row-major order
http://www.bom.gov.au/fwo/IDQ60801/IDQ60801.94590.json

Data quality

Most of these data are generated automatically and are frequently updated. Quality checks on data are not normally performed. It is possible for incorrect values to appear. Refer to information at About Latest Weather Observations and please check the disclaimer before using these data.